Terminal Aerodrome Forecast
Issued by NWS Tulsa, OK

Home | Current Version | Previous Version | Text Only | Print | Product List | Glossary On
Versions: 1 2 3 4 5 6 7 8 9 10 11 12
000
FTUS44 KTSA 262300
TAFFSM
TAF
KFSM 262338Z 2700/2724 30014KT P6SM SCT120
     FM270600 31009KT P6SM SCT120
     FM271200 28005KT P6SM SCT150
     FM271700 VRB03KT P6SM SCT150=

USA.gov is the U.S. government's official web portal to all federal, state and local government web resources and services.